OAL195 ZGOW-RCYU
Flight info
| Callsign | OAL195 |
|---|---|
| Flight time | 1h 30m |
| Altitude | 27000 |
| Route | SWA DCT LAPUG R200 ANPOG A1 HLG J4 YILAN B591 WADER |
| Aircraft | STAR/L-SDFGRWY/S |
Departure
| Time | 2026-04-24 03:19 |
|---|---|
| Airport | Jieyang Chaoshan International Airport (ZGOW) |
Arrival
| Time | 2026-04-24 04:49 |
|---|---|
| Airport | Hualien Chiashan Airport (RCYU) |
| Time | Latitude | Longitude | Altitude | Speed | Heading |
|---|---|---|---|---|---|
| 2026-04-24 03:06 | 23.54113 | 116.49785 | 15 ft | 0 kts | 125° |
| 2026-04-24 03:17 | 23.54110 | 116.49793 | 15 ft | 5 kts | 91° |
| 2026-04-24 03:17 | 23.54132 | 116.49765 | 15 ft | 14 kts | 282° |
| 2026-04-24 03:17 | 23.54100 | 116.49657 | 15 ft | 18 kts | 250° |
| 2026-04-24 03:17 | 23.54169 | 116.49538 | 15 ft | 21 kts | 309° |
| 2026-04-24 03:18 | 23.54259 | 116.49475 | 15 ft | 13 kts | 26° |
| 2026-04-24 03:18 | 23.54277 | 116.49489 | 15 ft | 0 kts | 40° |
| 2026-04-24 03:18 | 23.54278 | 116.49489 | 15 ft | 0 kts | 40° |
| 2026-04-24 03:18 | 23.54286 | 116.49497 | 15 ft | 15 kts | 40° |
| 2026-04-24 03:19 | 23.54519 | 116.49709 | 17 ft | 68 kts | 40° |
| 2026-04-24 03:19 | 23.55001 | 116.50149 | 42 ft | 112 kts | 40° |
| 2026-04-24 03:19 | 23.55645 | 116.50780 | 413 ft | 137 kts | 41° |
| 2026-04-24 03:19 | 23.56383 | 116.51462 | 1092 ft | 139 kts | 40° |
| 2026-04-24 03:20 | 23.57126 | 116.52125 | 1848 ft | 141 kts | 36° |
| 2026-04-24 03:20 | 23.58061 | 116.52306 | 2661 ft | 142 kts | 343° |
| 2026-04-24 03:20 | 23.58756 | 116.51577 | 3508 ft | 146 kts | 294° |
| 2026-04-24 03:20 | 23.59162 | 116.50572 | 4370 ft | 144 kts | 300° |
| 2026-04-24 03:21 | 23.59704 | 116.49650 | 5264 ft | 145 kts | 302° |
| 2026-04-24 03:21 | 23.60292 | 116.48757 | 6177 ft | 145 kts | 303° |
| 2026-04-24 03:21 | 23.60908 | 116.47895 | 7078 ft | 144 kts | 304° |
| 2026-04-24 03:21 | 23.61542 | 116.47048 | 7951 ft | 144 kts | 304° |
| 2026-04-24 03:22 | 23.62188 | 116.46205 | 8820 ft | 145 kts | 304° |
| 2026-04-24 03:22 | 23.62841 | 116.45364 | 9688 ft | 145 kts | 305° |
| 2026-04-24 03:22 | 23.63488 | 116.44544 | 10505 ft | 144 kts | 304° |
| 2026-04-24 03:22 | 23.63792 | 116.43584 | 11270 ft | 136 kts | 260° |
| 2026-04-24 03:23 | 23.63195 | 116.42809 | 12034 ft | 146 kts | 210° |
| 2026-04-24 03:23 | 23.62137 | 116.42891 | 12789 ft | 168 kts | 163° |
| 2026-04-24 03:23 | 23.61147 | 116.43613 | 13562 ft | 174 kts | 153° |
| 2026-04-24 03:23 | 23.60192 | 116.44437 | 14256 ft | 177 kts | 150° |
| 2026-04-24 03:24 | 23.59286 | 116.45373 | 14895 ft | 188 kts | 132° |
| 2026-04-24 03:24 | 23.58651 | 116.46647 | 15536 ft | 194 kts | 123° |
| 2026-04-24 03:24 | 23.58021 | 116.47951 | 16182 ft | 195 kts | 127° |
| 2026-04-24 03:24 | 23.57355 | 116.49263 | 16841 ft | 199 kts | 127° |
| 2026-04-24 03:25 | 23.56708 | 116.50612 | 17501 ft | 202 kts | 126° |
| 2026-04-24 03:25 | 23.56053 | 116.51981 | 18158 ft | 205 kts | 127° |
| 2026-04-24 03:25 | 23.55375 | 116.53362 | 18750 ft | 208 kts | 128° |
| 2026-04-24 03:25 | 23.54693 | 116.54757 | 19340 ft | 209 kts | 128° |
| 2026-04-24 03:26 | 23.54013 | 116.56159 | 19942 ft | 210 kts | 128° |
| 2026-04-24 03:26 | 23.53329 | 116.57562 | 20549 ft | 209 kts | 128° |
| 2026-04-24 03:26 | 23.52655 | 116.58942 | 21158 ft | 209 kts | 128° |
| 2026-04-24 03:26 | 23.51973 | 116.60345 | 21753 ft | 210 kts | 129° |
| 2026-04-24 03:27 | 23.51289 | 116.61747 | 22284 ft | 210 kts | 128° |
| 2026-04-24 03:27 | 23.50585 | 116.63155 | 22801 ft | 212 kts | 125° |
| 2026-04-24 03:27 | 23.49903 | 116.64593 | 23317 ft | 215 kts | 124° |
| 2026-04-24 03:27 | 23.49204 | 116.66037 | 23801 ft | 216 kts | 126° |
| 2026-04-24 03:28 | 23.48486 | 116.67485 | 24237 ft | 218 kts | 126° |
| 2026-04-24 03:28 | 23.47769 | 116.68955 | 24681 ft | 220 kts | 126° |
| 2026-04-24 03:28 | 23.47048 | 116.70439 | 25120 ft | 222 kts | 127° |
| 2026-04-24 03:28 | 23.46317 | 116.71929 | 25553 ft | 224 kts | 127° |
| 2026-04-24 03:29 | 23.45579 | 116.73435 | 25958 ft | 226 kts | 127° |
| 2026-04-24 03:29 | 23.44838 | 116.74954 | 26348 ft | 228 kts | 128° |
| 2026-04-24 03:29 | 23.44081 | 116.76471 | 26673 ft | 235 kts | 130° |
| 2026-04-24 03:29 | 23.43129 | 116.77951 | 26831 ft | 244 kts | 140° |
| 2026-04-24 03:30 | 23.41997 | 116.79392 | 26907 ft | 258 kts | 140° |
| 2026-04-24 03:30 | 23.40873 | 116.80983 | 26945 ft | 271 kts | 136° |
| 2026-04-24 03:30 | 23.39707 | 116.82629 | 26959 ft | 278 kts | 138° |
| 2026-04-24 03:30 | 23.38481 | 116.84295 | 26967 ft | 286 kts | 137° |
| 2026-04-24 03:31 | 23.37249 | 116.86023 | 26969 ft | 291 kts | 136° |
| 2026-04-24 03:31 | 23.35988 | 116.87768 | 26967 ft | 295 kts | 136° |
| 2026-04-24 03:31 | 23.34710 | 116.89530 | 26968 ft | 298 kts | 136° |
| 2026-04-24 03:31 | 23.33422 | 116.91320 | 26969 ft | 301 kts | 136° |
| 2026-04-24 03:32 | 23.32118 | 116.93119 | 26970 ft | 304 kts | 136° |
| 2026-04-24 03:32 | 23.30823 | 116.94909 | 26970 ft | 306 kts | 136° |
| 2026-04-24 03:32 | 23.29506 | 116.96731 | 26970 ft | 307 kts | 136° |
| 2026-04-24 03:32 | 23.28181 | 116.98560 | 26970 ft | 308 kts | 136° |
| 2026-04-24 03:33 | 23.26855 | 117.00392 | 26961 ft | 308 kts | 136° |
| 2026-04-24 03:33 | 23.25528 | 117.02224 | 26961 ft | 308 kts | 136° |
| 2026-04-24 03:33 | 23.24197 | 117.04059 | 26962 ft | 308 kts | 136° |
| 2026-04-24 03:33 | 23.22871 | 117.05889 | 26962 ft | 308 kts | 136° |
| 2026-04-24 03:34 | 23.21545 | 117.07716 | 26963 ft | 308 kts | 136° |
| 2026-04-24 03:34 | 23.20221 | 117.09542 | 26962 ft | 307 kts | 136° |
| 2026-04-24 03:34 | 23.18899 | 117.11363 | 26959 ft | 306 kts | 136° |
| 2026-04-24 03:34 | 23.17589 | 117.13169 | 26959 ft | 303 kts | 136° |
| 2026-04-24 03:35 | 23.16287 | 117.14960 | 26960 ft | 300 kts | 136° |
| 2026-04-24 03:35 | 23.14999 | 117.16732 | 26959 ft | 298 kts | 136° |
| 2026-04-24 03:35 | 23.13735 | 117.18470 | 26958 ft | 296 kts | 136° |
| 2026-04-24 03:35 | 23.12462 | 117.20222 | 26959 ft | 294 kts | 136° |
| 2026-04-24 03:36 | 23.11196 | 117.21964 | 26938 ft | 293 kts | 136° |
| 2026-04-24 03:36 | 23.09935 | 117.23695 | 26942 ft | 292 kts | 136° |
| 2026-04-24 03:36 | 23.08678 | 117.25425 | 26946 ft | 291 kts | 136° |
| 2026-04-24 03:36 | 23.07429 | 117.27165 | 26948 ft | 292 kts | 133° |
| 2026-04-24 03:37 | 23.06267 | 117.28946 | 26954 ft | 291 kts | 134° |
| 2026-04-24 03:37 | 23.05033 | 117.30683 | 26953 ft | 291 kts | 135° |
| 2026-04-24 03:37 | 23.03831 | 117.32456 | 26952 ft | 291 kts | 133° |
| 2026-04-24 03:37 | 23.02630 | 117.34220 | 26954 ft | 290 kts | 134° |
| 2026-04-24 03:38 | 23.01415 | 117.35974 | 26946 ft | 290 kts | 134° |
| 2026-04-24 03:38 | 23.00619 | 117.37141 | 26949 ft | 290 kts | 134° |
| 2026-04-24 03:38 | 22.99418 | 117.38899 | 26951 ft | 289 kts | 134° |
| 2026-04-24 03:38 | 22.98213 | 117.40648 | 26951 ft | 289 kts | 134° |
| 2026-04-24 03:39 | 22.97013 | 117.42399 | 26953 ft | 289 kts | 134° |
| 2026-04-24 03:39 | 22.95812 | 117.44149 | 26945 ft | 289 kts | 134° |
| 2026-04-24 03:39 | 22.94608 | 117.45902 | 26947 ft | 289 kts | 134° |
| 2026-04-24 03:39 | 22.93406 | 117.47651 | 26942 ft | 289 kts | 134° |
| 2026-04-24 03:40 | 22.91794 | 117.49997 | 26945 ft | 290 kts | 134° |
| 2026-04-24 03:40 | 22.90995 | 117.51160 | 26946 ft | 290 kts | 134° |
| 2026-04-24 03:40 | 22.89783 | 117.52921 | 26946 ft | 291 kts | 134° |
| 2026-04-24 03:40 | 22.88570 | 117.54684 | 26944 ft | 292 kts | 134° |
| 2026-04-24 03:41 | 22.87351 | 117.56458 | 26947 ft | 293 kts | 134° |
| 2026-04-24 03:41 | 22.86140 | 117.58215 | 26947 ft | 297 kts | 134° |
| 2026-04-24 03:41 | 22.84892 | 117.60027 | 26943 ft | 302 kts | 134° |
| 2026-04-24 03:41 | 22.83627 | 117.61864 | 26943 ft | 306 kts | 134° |
| 2026-04-24 03:42 | 22.82348 | 117.63720 | 26943 ft | 309 kts | 134° |
| 2026-04-24 03:42 | 22.81053 | 117.65599 | 26944 ft | 313 kts | 134° |
| 2026-04-24 03:42 | 22.79741 | 117.67502 | 26940 ft | 316 kts | 134° |
| 2026-04-24 03:42 | 22.78418 | 117.69421 | 26937 ft | 318 kts | 134° |
| 2026-04-24 03:43 | 22.77087 | 117.71349 | 26941 ft | 320 kts | 134° |
| 2026-04-24 03:43 | 22.75753 | 117.73281 | 26937 ft | 321 kts | 134° |
| 2026-04-24 03:43 | 22.74414 | 117.75220 | 26936 ft | 321 kts | 134° |
| 2026-04-24 03:43 | 22.73073 | 117.77161 | 26938 ft | 322 kts | 134° |
| 2026-04-24 03:44 | 22.71728 | 117.79107 | 26942 ft | 322 kts | 134° |
| 2026-04-24 03:44 | 22.70402 | 117.81025 | 26942 ft | 322 kts | 134° |
| 2026-04-24 03:44 | 22.69056 | 117.82971 | 26941 ft | 323 kts | 134° |
| 2026-04-24 03:44 | 22.67711 | 117.84916 | 26939 ft | 321 kts | 134° |
| 2026-04-24 03:45 | 22.66382 | 117.86836 | 26936 ft | 317 kts | 134° |
| 2026-04-24 03:45 | 22.65062 | 117.88742 | 26939 ft | 315 kts | 134° |
| 2026-04-24 03:45 | 22.63753 | 117.90631 | 26933 ft | 313 kts | 134° |
| 2026-04-24 03:45 | 22.62475 | 117.92540 | 26931 ft | 315 kts | 127° |
| 2026-04-24 03:46 | 22.61736 | 117.94797 | 26935 ft | 324 kts | 102° |
| 2026-04-24 03:46 | 22.61830 | 117.97234 | 26934 ft | 327 kts | 77° |
| 2026-04-24 03:46 | 22.62703 | 117.99487 | 26939 ft | 324 kts | 56° |
| 2026-04-24 03:46 | 22.63961 | 118.01506 | 26935 ft | 323 kts | 51° |
| 2026-04-24 03:47 | 22.65277 | 118.03480 | 26940 ft | 323 kts | 53° |
| 2026-04-24 03:47 | 22.66450 | 118.05522 | 26939 ft | 324 kts | 56° |
| 2026-04-24 03:47 | 22.67686 | 118.07559 | 26923 ft | 323 kts | 53° |
| 2026-04-24 03:47 | 22.68917 | 118.09603 | 26932 ft | 324 kts | 54° |
| 2026-04-24 03:48 | 22.70137 | 118.11660 | 26931 ft | 324 kts | 54° |
| 2026-04-24 03:48 | 22.71373 | 118.13706 | 26938 ft | 324 kts | 54° |
| 2026-04-24 03:48 | 22.72599 | 118.15760 | 26938 ft | 325 kts | 54° |
| 2026-04-24 03:48 | 22.73830 | 118.17820 | 26929 ft | 325 kts | 54° |
| 2026-04-24 03:49 | 22.75061 | 118.19874 | 26938 ft | 325 kts | 54° |
| 2026-04-24 03:49 | 22.76290 | 118.21932 | 26937 ft | 325 kts | 54° |
| 2026-04-24 03:49 | 22.77520 | 118.23989 | 26936 ft | 325 kts | 54° |
| 2026-04-24 03:49 | 22.78747 | 118.26043 | 26936 ft | 325 kts | 54° |
| 2026-04-24 03:50 | 22.79977 | 118.28103 | 26931 ft | 325 kts | 54° |
| 2026-04-24 03:50 | 22.81205 | 118.30160 | 26936 ft | 325 kts | 54° |
| 2026-04-24 03:50 | 22.82432 | 118.32216 | 26935 ft | 325 kts | 54° |
| 2026-04-24 03:50 | 22.83659 | 118.34273 | 26936 ft | 325 kts | 54° |
| 2026-04-24 03:51 | 22.84885 | 118.36330 | 26935 ft | 325 kts | 54° |
| 2026-04-24 03:51 | 22.86096 | 118.38359 | 26932 ft | 325 kts | 54° |
| 2026-04-24 03:51 | 22.87321 | 118.40417 | 26933 ft | 325 kts | 54° |
| 2026-04-24 03:51 | 22.88547 | 118.42477 | 26938 ft | 325 kts | 54° |
| 2026-04-24 03:52 | 22.89781 | 118.44543 | 26948 ft | 326 kts | 55° |
| 2026-04-24 03:52 | 22.91008 | 118.46614 | 26941 ft | 326 kts | 55° |
| 2026-04-24 03:52 | 22.92238 | 118.48679 | 26938 ft | 326 kts | 55° |
| 2026-04-24 03:52 | 22.93468 | 118.50746 | 26936 ft | 326 kts | 55° |
| 2026-04-24 03:53 | 22.94696 | 118.52812 | 26933 ft | 326 kts | 55° |
| 2026-04-24 03:53 | 22.95927 | 118.54881 | 26931 ft | 326 kts | 56° |
| 2026-04-24 03:53 | 22.97140 | 118.56947 | 26932 ft | 327 kts | 56° |
| 2026-04-24 03:53 | 22.98374 | 118.59033 | 26937 ft | 329 kts | 55° |
| 2026-04-24 03:54 | 22.99609 | 118.61125 | 26937 ft | 331 kts | 56° |
| 2026-04-24 03:54 | 23.00851 | 118.63233 | 26938 ft | 332 kts | 55° |
| 2026-04-24 03:54 | 23.02097 | 118.65343 | 26937 ft | 333 kts | 56° |
| 2026-04-24 03:54 | 23.03346 | 118.67463 | 26929 ft | 333 kts | 56° |
| 2026-04-24 03:55 | 23.04598 | 118.69588 | 26931 ft | 334 kts | 56° |
| 2026-04-24 03:55 | 23.05851 | 118.71715 | 26934 ft | 335 kts | 56° |
| 2026-04-24 03:55 | 23.07105 | 118.73846 | 26936 ft | 335 kts | 56° |
| 2026-04-24 03:55 | 23.08361 | 118.75980 | 26938 ft | 335 kts | 56° |
| 2026-04-24 03:56 | 23.09618 | 118.78117 | 26939 ft | 336 kts | 56° |
| 2026-04-24 03:56 | 23.10876 | 118.80255 | 26941 ft | 336 kts | 56° |
| 2026-04-24 03:56 | 23.12116 | 118.82367 | 26936 ft | 336 kts | 56° |
| 2026-04-24 03:56 | 23.13372 | 118.84506 | 26934 ft | 336 kts | 56° |
| 2026-04-24 03:57 | 23.14628 | 118.86643 | 26937 ft | 335 kts | 56° |
| 2026-04-24 03:57 | 23.15881 | 118.88779 | 26936 ft | 335 kts | 56° |
| 2026-04-24 03:57 | 23.17139 | 118.90922 | 26932 ft | 335 kts | 56° |
| 2026-04-24 03:57 | 23.18391 | 118.93057 | 26932 ft | 335 kts | 56° |
| 2026-04-24 03:58 | 23.19643 | 118.95193 | 26932 ft | 335 kts | 56° |
| 2026-04-24 03:58 | 23.20897 | 118.97333 | 26930 ft | 335 kts | 56° |
| 2026-04-24 03:58 | 23.22149 | 118.99470 | 26931 ft | 335 kts | 56° |
| 2026-04-24 03:58 | 23.23400 | 119.01605 | 26929 ft | 335 kts | 56° |
| 2026-04-24 03:59 | 23.24653 | 119.03748 | 26929 ft | 335 kts | 56° |
| 2026-04-24 03:59 | 23.25903 | 119.05884 | 26929 ft | 335 kts | 56° |
| 2026-04-24 03:59 | 23.27152 | 119.08020 | 26929 ft | 335 kts | 56° |
| 2026-04-24 03:59 | 23.28385 | 119.10129 | 26929 ft | 335 kts | 56° |
| 2026-04-24 04:00 | 23.29636 | 119.12269 | 26929 ft | 335 kts | 56° |
| 2026-04-24 04:00 | 23.30883 | 119.14406 | 26928 ft | 334 kts | 56° |
| 2026-04-24 04:00 | 23.32134 | 119.16546 | 26942 ft | 335 kts | 56° |
| 2026-04-24 04:00 | 23.33383 | 119.18689 | 26938 ft | 335 kts | 56° |
| 2026-04-24 04:01 | 23.34635 | 119.20834 | 26936 ft | 335 kts | 56° |
| 2026-04-24 04:01 | 23.35885 | 119.22977 | 26934 ft | 335 kts | 56° |
| 2026-04-24 04:01 | 23.37131 | 119.25117 | 26925 ft | 335 kts | 56° |
| 2026-04-24 04:01 | 23.38383 | 119.27264 | 26927 ft | 335 kts | 56° |
| 2026-04-24 04:02 | 23.39628 | 119.29404 | 26933 ft | 334 kts | 56° |
| 2026-04-24 04:02 | 23.40872 | 119.31541 | 26934 ft | 334 kts | 56° |
| 2026-04-24 04:02 | 23.42116 | 119.33677 | 26935 ft | 334 kts | 56° |
| 2026-04-24 04:02 | 23.43346 | 119.35793 | 26937 ft | 334 kts | 56° |
| 2026-04-24 04:03 | 23.44587 | 119.37928 | 26938 ft | 333 kts | 56° |
| 2026-04-24 04:03 | 23.45827 | 119.40062 | 26939 ft | 333 kts | 57° |
| 2026-04-24 04:03 | 23.47065 | 119.42193 | 26941 ft | 333 kts | 56° |
| 2026-04-24 04:03 | 23.48308 | 119.44333 | 26941 ft | 333 kts | 57° |
| 2026-04-24 04:04 | 23.49547 | 119.46468 | 26941 ft | 333 kts | 57° |
| 2026-04-24 04:04 | 23.50787 | 119.48606 | 26942 ft | 333 kts | 57° |
| 2026-04-24 04:04 | 23.52022 | 119.50735 | 26959 ft | 333 kts | 57° |
| 2026-04-24 04:04 | 23.53261 | 119.52872 | 26950 ft | 333 kts | 57° |
| 2026-04-24 04:05 | 23.54496 | 119.55004 | 26940 ft | 332 kts | 57° |
| 2026-04-24 04:05 | 23.55714 | 119.57107 | 26941 ft | 332 kts | 57° |
| 2026-04-24 04:05 | 23.56943 | 119.59233 | 26942 ft | 331 kts | 57° |
| 2026-04-24 04:05 | 23.58172 | 119.61355 | 26942 ft | 331 kts | 57° |
| 2026-04-24 04:06 | 23.59446 | 119.63443 | 26942 ft | 330 kts | 53° |
| 2026-04-24 04:06 | 23.60911 | 119.65356 | 26942 ft | 329 kts | 43° |
| 2026-04-24 04:06 | 23.62565 | 119.67083 | 26942 ft | 329 kts | 41° |
| 2026-04-24 04:06 | 23.64159 | 119.68885 | 26942 ft | 331 kts | 45° |
| 2026-04-24 04:07 | 23.65770 | 119.70695 | 26942 ft | 332 kts | 42° |
| 2026-04-24 04:07 | 23.67392 | 119.72489 | 26942 ft | 332 kts | 44° |
| 2026-04-24 04:07 | 23.68996 | 119.74307 | 26943 ft | 333 kts | 43° |
| 2026-04-24 04:07 | 23.70624 | 119.76116 | 26941 ft | 335 kts | 43° |
| 2026-04-24 04:08 | 23.72249 | 119.77940 | 26941 ft | 335 kts | 44° |
| 2026-04-24 04:08 | 23.73879 | 119.79768 | 26959 ft | 336 kts | 43° |
| 2026-04-24 04:08 | 23.75514 | 119.81600 | 26948 ft | 338 kts | 43° |
| 2026-04-24 04:08 | 23.77155 | 119.83440 | 26935 ft | 339 kts | 44° |
| 2026-04-24 04:09 | 23.78799 | 119.85284 | 26933 ft | 338 kts | 44° |
| 2026-04-24 04:09 | 23.80419 | 119.87105 | 26933 ft | 339 kts | 44° |
| 2026-04-24 04:09 | 23.82064 | 119.88949 | 26931 ft | 338 kts | 44° |
| 2026-04-24 04:09 | 23.83705 | 119.90793 | 26934 ft | 338 kts | 44° |
| 2026-04-24 04:10 | 23.85342 | 119.92633 | 26933 ft | 337 kts | 44° |
| 2026-04-24 04:10 | 23.86973 | 119.94466 | 26936 ft | 336 kts | 44° |
| 2026-04-24 04:10 | 23.88606 | 119.96303 | 26937 ft | 336 kts | 44° |
| 2026-04-24 04:11 | 23.91861 | 119.99965 | 26938 ft | 335 kts | 44° |
| 2026-04-24 04:11 | 23.93490 | 120.01799 | 26938 ft | 335 kts | 44° |
| 2026-04-24 04:11 | 23.95092 | 120.03603 | 26937 ft | 335 kts | 44° |
| 2026-04-24 04:11 | 23.96718 | 120.05435 | 26952 ft | 335 kts | 44° |
| 2026-04-24 04:12 | 23.98344 | 120.07268 | 26947 ft | 336 kts | 44° |
| 2026-04-24 04:12 | 23.99973 | 120.09103 | 26943 ft | 336 kts | 44° |
| 2026-04-24 04:12 | 24.01601 | 120.10941 | 26945 ft | 336 kts | 44° |
| 2026-04-24 04:12 | 24.03231 | 120.12782 | 26937 ft | 336 kts | 44° |
| 2026-04-24 04:13 | 24.04854 | 120.14614 | 26938 ft | 335 kts | 44° |
| 2026-04-24 04:13 | 24.06478 | 120.16448 | 26937 ft | 335 kts | 44° |
| 2026-04-24 04:13 | 24.08102 | 120.18288 | 26951 ft | 339 kts | 43° |
| 2026-04-24 04:13 | 24.09769 | 120.20162 | 26949 ft | 347 kts | 44° |
| 2026-04-24 04:14 | 24.11458 | 120.22082 | 26946 ft | 353 kts | 44° |
| 2026-04-24 04:14 | 24.13177 | 120.24024 | 26952 ft | 357 kts | 43° |
| 2026-04-24 04:14 | 24.14890 | 120.25960 | 26944 ft | 360 kts | 44° |
| 2026-04-24 04:14 | 24.16632 | 120.27939 | 26949 ft | 361 kts | 44° |
| 2026-04-24 04:15 | 24.18385 | 120.29920 | 26978 ft | 363 kts | 44° |
| 2026-04-24 04:15 | 24.20140 | 120.31906 | 26970 ft | 362 kts | 44° |
| 2026-04-24 04:15 | 24.21873 | 120.33886 | 26959 ft | 357 kts | 44° |
| 2026-04-24 04:15 | 24.23581 | 120.35825 | 26963 ft | 351 kts | 44° |
| 2026-04-24 04:16 | 24.25268 | 120.37733 | 26965 ft | 346 kts | 44° |
| 2026-04-24 04:16 | 24.26929 | 120.39623 | 26966 ft | 343 kts | 44° |
| 2026-04-24 04:16 | 24.28580 | 120.41495 | 26961 ft | 340 kts | 44° |
| 2026-04-24 04:16 | 24.30214 | 120.43351 | 26971 ft | 337 kts | 44° |
| 2026-04-24 04:17 | 24.31838 | 120.45197 | 26966 ft | 335 kts | 44° |
| 2026-04-24 04:17 | 24.33452 | 120.47031 | 26967 ft | 333 kts | 44° |
| 2026-04-24 04:17 | 24.35061 | 120.48862 | 26968 ft | 332 kts | 44° |
| 2026-04-24 04:17 | 24.36668 | 120.50690 | 26974 ft | 334 kts | 43° |
| 2026-04-24 04:18 | 24.38293 | 120.52536 | 26972 ft | 339 kts | 44° |
| 2026-04-24 04:18 | 24.39918 | 120.54387 | 27004 ft | 343 kts | 44° |
| 2026-04-24 04:18 | 24.41589 | 120.56294 | 26983 ft | 349 kts | 44° |
| 2026-04-24 04:18 | 24.43279 | 120.58219 | 26969 ft | 350 kts | 44° |
| 2026-04-24 04:19 | 24.44957 | 120.60132 | 26969 ft | 346 kts | 44° |
| 2026-04-24 04:19 | 24.46621 | 120.62027 | 26968 ft | 344 kts | 44° |
| 2026-04-24 04:19 | 24.48270 | 120.63910 | 26969 ft | 341 kts | 44° |
| 2026-04-24 04:19 | 24.49912 | 120.65784 | 26971 ft | 339 kts | 44° |
| 2026-04-24 04:20 | 24.51543 | 120.67645 | 26968 ft | 337 kts | 44° |
| 2026-04-24 04:20 | 24.53167 | 120.69502 | 26965 ft | 335 kts | 44° |
| 2026-04-24 04:20 | 24.54773 | 120.71339 | 26965 ft | 332 kts | 44° |
| 2026-04-24 04:20 | 24.56135 | 120.73375 | 26964 ft | 330 kts | 58° |
| 2026-04-24 04:21 | 24.57169 | 120.75604 | 26970 ft | 327 kts | 70° |
| 2026-04-24 04:21 | 24.57969 | 120.77934 | 26970 ft | 325 kts | 72° |
| 2026-04-24 04:21 | 24.58840 | 120.80223 | 26970 ft | 324 kts | 68° |
| 2026-04-24 04:21 | 24.59716 | 120.82471 | 26818 ft | 319 kts | 70° |
| 2026-04-24 04:22 | 24.60555 | 120.84744 | 26466 ft | 323 kts | 69° |
| 2026-04-24 04:22 | 24.61442 | 120.87026 | 26125 ft | 326 kts | 69° |
| 2026-04-24 04:22 | 24.62306 | 120.89309 | 25782 ft | 329 kts | 69° |
| 2026-04-24 04:22 | 24.63186 | 120.91632 | 25431 ft | 330 kts | 69° |
| 2026-04-24 04:23 | 24.64078 | 120.93964 | 25088 ft | 331 kts | 69° |
| 2026-04-24 04:23 | 24.64960 | 120.96295 | 24753 ft | 331 kts | 69° |
| 2026-04-24 04:23 | 24.65845 | 120.98630 | 24413 ft | 329 kts | 68° |
| 2026-04-24 04:23 | 24.66730 | 121.00946 | 24082 ft | 327 kts | 68° |
| 2026-04-24 04:24 | 24.67605 | 121.03263 | 23754 ft | 326 kts | 68° |
| 2026-04-24 04:24 | 24.68465 | 121.05532 | 23398 ft | 324 kts | 67° |
| 2026-04-24 04:24 | 24.69331 | 121.07809 | 23013 ft | 322 kts | 68° |
| 2026-04-24 04:24 | 24.70190 | 121.10081 | 22624 ft | 320 kts | 67° |
| 2026-04-24 04:25 | 24.71047 | 121.12344 | 22239 ft | 318 kts | 67° |
| 2026-04-24 04:25 | 24.71609 | 121.13829 | 21989 ft | 317 kts | 67° |
| 2026-04-24 04:25 | 24.72728 | 121.16787 | 21493 ft | 315 kts | 67° |
| 2026-04-24 04:25 | 24.73567 | 121.19006 | 21136 ft | 313 kts | 66° |
| 2026-04-24 04:26 | 24.74405 | 121.21221 | 20762 ft | 314 kts | 66° |
| 2026-04-24 04:26 | 24.74961 | 121.22694 | 20524 ft | 315 kts | 66° |
| 2026-04-24 04:26 | 24.75802 | 121.24921 | 20160 ft | 315 kts | 66° |
| 2026-04-24 04:26 | 24.76653 | 121.27177 | 19804 ft | 315 kts | 66° |
| 2026-04-24 04:27 | 24.77484 | 121.29380 | 19459 ft | 314 kts | 66° |
| 2026-04-24 04:27 | 24.78320 | 121.31598 | 19117 ft | 313 kts | 66° |
| 2026-04-24 04:27 | 24.79091 | 121.33829 | 18775 ft | 310 kts | 73° |
| 2026-04-24 04:27 | 24.79459 | 121.36167 | 18438 ft | 309 kts | 86° |
| 2026-04-24 04:28 | 24.79512 | 121.38523 | 18072 ft | 308 kts | 91° |
| 2026-04-24 04:28 | 24.79595 | 121.40880 | 17681 ft | 308 kts | 85° |
| 2026-04-24 04:28 | 24.79743 | 121.43196 | 17302 ft | 307 kts | 88° |
| 2026-04-24 04:28 | 24.79835 | 121.45540 | 16923 ft | 306 kts | 88° |
| 2026-04-24 04:29 | 24.79959 | 121.47878 | 16547 ft | 304 kts | 87° |
| 2026-04-24 04:29 | 24.80075 | 121.50198 | 16175 ft | 303 kts | 88° |
| 2026-04-24 04:29 | 24.80182 | 121.52507 | 15812 ft | 302 kts | 87° |
| 2026-04-24 04:29 | 24.80297 | 121.54822 | 15452 ft | 304 kts | 87° |
| 2026-04-24 04:30 | 24.80412 | 121.57151 | 15094 ft | 304 kts | 87° |
| 2026-04-24 04:30 | 24.80522 | 121.59482 | 14745 ft | 304 kts | 88° |
| 2026-04-24 04:30 | 24.80634 | 121.61793 | 14399 ft | 300 kts | 87° |
| 2026-04-24 04:30 | 24.80746 | 121.64053 | 14059 ft | 298 kts | 88° |
| 2026-04-24 04:31 | 24.80851 | 121.66332 | 13703 ft | 298 kts | 88° |
| 2026-04-24 04:31 | 24.80960 | 121.68610 | 13305 ft | 296 kts | 88° |
| 2026-04-24 04:31 | 24.81071 | 121.70853 | 12922 ft | 290 kts | 88° |
| 2026-04-24 04:31 | 24.80982 | 121.73033 | 12546 ft | 282 kts | 107° |
| 2026-04-24 04:32 | 24.80148 | 121.74913 | 12182 ft | 269 kts | 135° |
| 2026-04-24 04:32 | 24.78785 | 121.76258 | 11813 ft | 258 kts | 153° |
| 2026-04-24 04:32 | 24.77257 | 121.77212 | 11524 ft | 248 kts | 161° |
| 2026-04-24 04:32 | 24.75733 | 121.78059 | 11236 ft | 244 kts | 159° |
| 2026-04-24 04:33 | 24.74268 | 121.78993 | 10950 ft | 242 kts | 157° |
| 2026-04-24 04:33 | 24.72833 | 121.79883 | 10671 ft | 237 kts | 159° |
| 2026-04-24 04:33 | 24.71388 | 121.80743 | 10395 ft | 235 kts | 158° |
| 2026-04-24 04:33 | 24.69973 | 121.81626 | 10115 ft | 233 kts | 156° |
| 2026-04-24 04:34 | 24.68565 | 121.82495 | 9828 ft | 231 kts | 157° |
| 2026-04-24 04:34 | 24.67162 | 121.83344 | 9521 ft | 229 kts | 157° |
| 2026-04-24 04:34 | 24.65778 | 121.84192 | 9217 ft | 227 kts | 156° |
| 2026-04-24 04:34 | 24.64405 | 121.85039 | 8913 ft | 225 kts | 156° |
| 2026-04-24 04:35 | 24.63043 | 121.85872 | 8615 ft | 223 kts | 156° |
| 2026-04-24 04:35 | 24.61692 | 121.86695 | 8317 ft | 221 kts | 155° |
| 2026-04-24 04:35 | 24.60359 | 121.87512 | 8048 ft | 218 kts | 154° |
| 2026-04-24 04:35 | 24.59042 | 121.88321 | 7780 ft | 215 kts | 155° |
| 2026-04-24 04:36 | 24.57738 | 121.89119 | 7516 ft | 213 kts | 155° |
| 2026-04-24 04:36 | 24.56463 | 121.89893 | 7258 ft | 211 kts | 154° |
| 2026-04-24 04:36 | 24.55174 | 121.90681 | 7005 ft | 213 kts | 153° |
| 2026-04-24 04:36 | 24.53859 | 121.91489 | 6756 ft | 221 kts | 154° |
| 2026-04-24 04:37 | 24.52493 | 121.92328 | 6497 ft | 226 kts | 154° |
| 2026-04-24 04:37 | 24.51111 | 121.93162 | 6246 ft | 225 kts | 153° |
| 2026-04-24 04:37 | 24.49762 | 121.93993 | 6117 ft | 220 kts | 153° |
| 2026-04-24 04:37 | 24.48469 | 121.94796 | 6036 ft | 206 kts | 153° |
| 2026-04-24 04:38 | 24.47269 | 121.95522 | 6023 ft | 189 kts | 153° |
| 2026-04-24 04:38 | 24.46137 | 121.96228 | 6012 ft | 190 kts | 153° |
| 2026-04-24 04:38 | 24.44957 | 121.96946 | 6004 ft | 198 kts | 154° |
| 2026-04-24 04:38 | 24.43706 | 121.97561 | 5998 ft | 196 kts | 172° |
| 2026-04-24 04:39 | 24.42392 | 121.97328 | 5999 ft | 195 kts | 208° |
| 2026-04-24 04:39 | 24.41295 | 121.96480 | 6001 ft | 197 kts | 218° |
| 2026-04-24 04:39 | 24.40234 | 121.95517 | 5998 ft | 199 kts | 220° |
| 2026-04-24 04:39 | 24.39180 | 121.94531 | 6000 ft | 200 kts | 218° |
| 2026-04-24 04:40 | 24.38054 | 121.93626 | 6000 ft | 201 kts | 215° |
| 2026-04-24 04:40 | 24.36912 | 121.92724 | 6001 ft | 203 kts | 217° |
| 2026-04-24 04:40 | 24.35779 | 121.91779 | 6000 ft | 206 kts | 217° |
| 2026-04-24 04:40 | 24.34630 | 121.90838 | 5998 ft | 206 kts | 216° |
| 2026-04-24 04:41 | 24.33462 | 121.89900 | 6005 ft | 209 kts | 216° |
| 2026-04-24 04:41 | 24.32281 | 121.88931 | 6012 ft | 213 kts | 215° |
| 2026-04-24 04:41 | 24.31081 | 121.87951 | 6019 ft | 218 kts | 215° |
| 2026-04-24 04:41 | 24.29887 | 121.86995 | 5983 ft | 212 kts | 217° |
| 2026-04-24 04:42 | 24.28741 | 121.86010 | 5862 ft | 207 kts | 221° |
| 2026-04-24 04:42 | 24.27734 | 121.84892 | 5655 ft | 205 kts | 226° |
| 2026-04-24 04:42 | 24.26757 | 121.83774 | 5428 ft | 201 kts | 224° |
| 2026-04-24 04:42 | 24.25760 | 121.82732 | 5203 ft | 195 kts | 223° |
| 2026-04-24 04:43 | 24.24810 | 121.81710 | 4983 ft | 188 kts | 223° |
| 2026-04-24 04:43 | 24.23894 | 121.80713 | 4764 ft | 184 kts | 223° |
| 2026-04-24 04:43 | 24.22982 | 121.79727 | 4548 ft | 185 kts | 223° |
| 2026-04-24 04:43 | 24.22046 | 121.78723 | 4330 ft | 190 kts | 223° |
| 2026-04-24 04:44 | 24.21095 | 121.77695 | 4112 ft | 194 kts | 224° |
| 2026-04-24 04:44 | 24.20133 | 121.76645 | 3891 ft | 196 kts | 223° |
| 2026-04-24 04:44 | 24.19157 | 121.75590 | 3664 ft | 198 kts | 223° |
| 2026-04-24 04:44 | 24.18163 | 121.74531 | 3435 ft | 199 kts | 223° |
| 2026-04-24 04:45 | 24.17191 | 121.73452 | 3217 ft | 199 kts | 226° |
| 2026-04-24 04:45 | 24.16264 | 121.72356 | 2995 ft | 198 kts | 226° |
| 2026-04-24 04:45 | 24.15311 | 121.71271 | 2762 ft | 197 kts | 225° |
| 2026-04-24 04:45 | 24.14366 | 121.70206 | 2513 ft | 193 kts | 225° |
| 2026-04-24 04:46 | 24.13442 | 121.69146 | 2256 ft | 191 kts | 225° |
| 2026-04-24 04:46 | 24.12530 | 121.68097 | 2007 ft | 189 kts | 225° |
| 2026-04-24 04:46 | 24.11639 | 121.67084 | 1790 ft | 178 kts | 225° |
| 2026-04-24 04:46 | 24.10791 | 121.66187 | 1593 ft | 156 kts | 211° |
| 2026-04-24 04:47 | 24.09910 | 121.65695 | 1365 ft | 135 kts | 202° |
| 2026-04-24 04:47 | 24.09041 | 121.65291 | 1172 ft | 136 kts | 201° |
| 2026-04-24 04:47 | 24.08180 | 121.64851 | 986 ft | 138 kts | 205° |
| 2026-04-24 04:47 | 24.07327 | 121.64366 | 785 ft | 138 kts | 206° |
| 2026-04-24 04:48 | 24.06504 | 121.63904 | 583 ft | 124 kts | 205° |
| 2026-04-24 04:48 | 24.05786 | 121.63526 | 462 ft | 111 kts | 204° |
| 2026-04-24 04:48 | 24.05096 | 121.63164 | 434 ft | 113 kts | 203° |
| 2026-04-24 04:48 | 24.04362 | 121.62764 | 332 ft | 120 kts | 202° |
| 2026-04-24 04:49 | 24.03639 | 121.62374 | 142 ft | 108 kts | 204° |
| 2026-04-24 04:49 | 24.03017 | 121.62037 | 74 ft | 86 kts | 205° |
| 2026-04-24 04:49 | 24.02616 | 121.61823 | 80 ft | 29 kts | 206° |
| 2026-04-24 04:49 | 24.02495 | 121.61759 | 75 ft | 12 kts | 205° |
| 2026-04-24 04:50 | 24.02402 | 121.61703 | 74 ft | 14 kts | 233° |
| 2026-04-24 04:50 | 24.02435 | 121.61607 | 75 ft | 10 kts | 295° |
| 2026-04-24 04:50 | 24.02443 | 121.61585 | 74 ft | 0 kts | 292° |
| 2026-04-24 04:50 | 24.02445 | 121.61581 | 72 ft | 5 kts | 292° |
| 2026-04-24 04:51 | 24.02428 | 121.61504 | 78 ft | 14 kts | 271° |
| 2026-04-24 04:51 | 24.02506 | 121.61510 | 74 ft | 10 kts | 356° |
| 2026-04-24 04:51 | 24.02522 | 121.61478 | 76 ft | 4 kts | 295° |
| 2026-04-24 04:51 | 24.02529 | 121.61463 | 76 ft | 0 kts | 297° |